Washington, LA (70589)

9:11 PM CST on February 27, 2015 (GMT -0600)
Evangeline Sub. | Change Station
CLOSE
Current Station
Personal Weather Station
Location: Opelousas, LA
Elevation: 82 ft
Nearby Weather Stations

Elev 82 ft 30.58 °N, 92.08 °W | Updated 5 minutes ago

Clear
Clear
36.1 °F
Feels Like 36 °F
N
2.7
Wind Variable Wind from NNE

Today
High -- | Low -- °F
--% Chance of Precip.
Yesterday
High -- | Low -- °F
Precip. -- in
6:36 AM 6:05 PM
Waxing Gibbous, 74% visible
Pressure 30.44 in
Visibility 10.0 miles
Clouds Clear
Windchill 36 °F
Dew Point 30 °F
Humidity 77%
Rainfall 0.00 in
Snow Depth Not available.
UV 0 out of 12
Pollen 8.80 out of 12
Air Quality Not available.
Flu Activity Not available.
METAR KOPL 280255Z AUTO 02008G16KT 10SM CLR 02/M02 A3044 RMK AO2 T00221020 PWINO

More Conditions Fewer Conditions

Pressure 30.44 in
Visibility 10.0 miles
Clouds Clear
Windchill 36 °F
Dew Point 30 °F
Humidity 77%
Rainfall 0.00 in
Snow Depth Not available.
UV 0 out of 12
Pollen 8.80 out of 12
Air Quality Not available.
Flu Activity Not available.
METAR KOPL 280255Z AUTO 02008G16KT 10SM CLR 02/M02 A3044 RMK AO2 T00221020 PWINO

More Conditions Fewer Conditions

10-Day Weather Forecast

Almanac

Astronomy

Feb. 27, 2015 Rise Set
Actual Time
Civil Twilight
Nautical Twilight
Astronomical Twilight
Moon
Length of Visible Light
Length of Day
Tomorrow will be .
, % of the Moon is Illuminated

Today's Extremes

State Highs State Lows

Community

WunderPhotos

Upload Photos

1,800,951 photos uploaded!

WunderBlogs® & News

Nearby

Air Quality

  Air Quality AQ Index Pollutant
Not available.

Snow Depth

Station Depth Elevation

Earthquake Activity

City Distance Mag. Time & Date
Minimum magnitude displayed is 2.5.

Coastal Water Temperatures

Place Temperature

Nearby Weather Stations